Time;durP1;ratioP1;P1;durP2;ratioP2;P2;SDS_P1;SDS_P2;PMS_P1;PMS_P2;Temp;Humidity;BMP_temperature;BMP_pressure;BME280_temperature;BME280_humidity;BME280_pressure;Samples;Min_cycle;Max_cycle;Signal;HPM_P1;HPM_P2
2023/03/01 06:02:34;;;;;;;;;38.50;31.25;;;;;1.68;49.28;102358.31;4950885;28;45317;-52
2023/03/01 06:05:00;;;;;;;;;42.00;32.75;;;;;1.66;49.21;102352.19;4963099;28;46721;-51
2023/03/01 06:07:25;;;;;;;;;35.75;32.75;;;;;1.63;48.72;102341.63;4951430;28;46616;-50
2023/03/01 06:09:51;;;;;;;;;35.25;32.25;;;;;1.60;48.85;102353.00;4955739;28;45817;-51
2023/03/01 06:12:17;;;;;;;;;41.75;33.00;;;;;1.60;49.13;102342.50;4956308;28;45673;-51
2023/03/01 06:14:42;;;;;;;;;39.25;31.75;;;;;1.59;49.08;102347.69;4957061;28;45575;-52
2023/03/01 06:17:07;;;;;;;;;40.25;36.50;;;;;1.59;49.43;102345.06;4954177;28;75119;-51
2023/03/01 06:19:33;;;;;;;;;45.50;34.75;;;;;1.59;49.49;102345.06;4954037;28;63118;-51
2023/03/01 06:21:58;;;;;;;;;34.50;30.50;;;;;1.58;49.93;102335.47;4956068;28;68997;-50
2023/03/01 06:24:23;;;;;;;;;46.50;39.50;;;;;1.57;49.23;102338.94;4958466;28;59068;-51
2023/03/01 06:26:49;;;;;;;;;38.50;34.25;;;;;1.57;49.02;102326.69;4957376;28;47484;-50
2023/03/01 06:29:14;;;;;;;;;41.50;39.00;;;;;1.58;50.46;102335.47;4959058;28;45314;-52
2023/03/01 06:31:40;;;;;;;;;47.50;35.75;;;;;1.57;50.20;102336.34;4954845;28;45840;-51
2023/03/01 06:34:05;;;;;;;;;43.75;39.25;;;;;1.52;49.75;102328.41;4958054;28;45404;-50
2023/03/01 06:36:30;;;;;;;;;39.25;35.50;;;;;1.52;49.93;102328.41;4957360;28;48494;-50
2023/03/01 06:38:56;;;;;;;;;42.50;33.75;;;;;1.53;49.23;102327.53;4954263;28;69672;-53
2023/03/01 06:41:21;;;;;;;;;53.75;34.50;;;;;1.51;49.39;102326.63;4957473;28;67099;-51
2023/03/01 06:43:46;;;;;;;;;49.00;42.75;;;;;1.53;49.26;102324.03;4956466;28;53608;-51
2023/03/01 06:46:12;;;;;;;;;54.75;41.75;;;;;1.53;50.03;102332.78;4957378;28;46247;-49
2023/03/01 06:48:37;;;;;;;;;44.75;39.50;;;;;1.57;49.30;102328.47;4957433;28;71116;-50
2023/03/01 06:51:03;;;;;;;;;47.25;41.50;;;;;1.58;49.93;102324.97;4958241;28;45516;-50
2023/03/01 06:53:29;;;;;;;;;49.50;39.50;;;;;1.59;50.35;102325.00;4958325;28;45486;-49
2023/03/01 06:55:55;;;;;;;;;56.50;43.00;;;;;1.58;50.00;102328.47;4957428;28;46382;-51
2023/03/01 06:58:21;;;;;;;;;48.25;41.50;;;;;1.59;50.27;102319.75;4957191;28;45451;-49
2023/03/01 07:00:46;;;;;;;;;40.50;33.00;;;;;1.65;50.01;102326.78;4940410;28;62572;-56
2023/03/01 07:03:11;;;;;;;;;48.00;40.75;;;;;1.64;50.67;102306.66;4956253;28;46208;-57
2023/03/01 07:05:37;;;;;;;;;43.75;38.50;;;;;1.64;50.54;102319.78;4956959;28;71791;-57
2023/03/01 07:08:02;;;;;;;;;44.25;40.75;;;;;1.64;50.36;102319.78;4954540;28;67105;-56
2023/03/01 07:10:28;;;;;;;;;48.50;38.00;;;;;1.63;50.30;102310.16;4958083;28;45997;-57
2023/03/01 07:12:57;;;;;;;;;54.00;41.25;;;;;1.67;49.71;102314.59;4956186;28;45532;-57
2023/03/01 07:15:23;;;;;;;;;52.25;41.50;;;;;1.72;50.31;102318.16;4958487;28;45560;-57
2023/03/01 07:17:50;;;;;;;;;50.75;40.00;;;;;1.79;50.41;102314.72;4957587;28;45906;-56
2023/03/01 07:20:16;;;;;;;;;49.00;43.75;;;;;1.84;50.31;102316.50;4958531;28;45582;-56
2023/03/01 07:22:42;;;;;;;;;50.75;39.00;;;;;1.90;50.35;102311.31;4956942;28;45523;-56
2023/03/01 07:25:08;;;;;;;;;45.25;39.50;;;;;1.96;49.97;102307.00;4957628;28;46286;-57
2023/03/01 07:27:33;;;;;;;;;47.25;39.75;;;;;2.01;50.57;102298.28;4955979;28;45524;-57
2023/03/01 07:29:59;;;;;;;;;52.25;41.25;;;;;2.09;49.91;102305.38;4941440;28;45399;-55
2023/03/01 07:32:24;;;;;;;;;56.00;40.25;;;;;2.16;50.33;102308.94;4959479;28;60633;-57
2023/03/01 07:34:51;;;;;;;;;50.25;40.75;;;;;2.20;49.90;102309.84;4960013;28;70293;-56
2023/03/01 07:37:16;;;;;;;;;42.75;40.00;;;;;2.25;49.92;102310.78;4958077;28;45749;-56
2023/03/01 07:39:42;;;;;;;;;44.50;38.50;;;;;2.30;49.69;102309.94;4960823;28;45617;-59
2023/03/01 07:42:07;;;;;;;;;54.75;42.25;;;;;2.35;49.33;102310.00;4960755;28;45334;-57
2023/03/01 07:44:33;;;;;;;;;42.50;37.75;;;;;2.40;49.36;102300.41;4961382;28;46125;-57
2023/03/01 07:46:58;;;;;;;;;54.75;42.25;;;;;2.44;49.88;102307.44;4959797;28;45585;-56
2023/03/01 07:49:26;;;;;;;;;31.75;19.75;;;;;2.47;49.17;102299.56;4945252;28;45635;-57
2023/03/01 07:51:51;;;;;;;;;53.00;43.75;;;;;2.51;49.50;102296.97;4958745;28;45550;-57
2023/03/01 07:54:17;;;;;;;;;49.75;41.75;;;;;2.55;49.21;102301.38;4959278;28;46469;-57
2023/03/01 07:56:43;;;;;;;;;59.75;38.00;;;;;2.63;49.16;102300.59;4960343;28;45388;-57
2023/03/01 07:59:08;;;;;;;;;67.25;47.75;;;;;2.70;49.14;102298.88;4958000;28;45478;-56
2023/03/01 08:01:33;;;;;;;;;58.00;43.25;;;;;2.78;49.18;102299.78;4958566;28;45559;-56
2023/03/01 08:03:59;;;;;;;;;45.50;39.25;;;;;2.88;48.71;102302.47;4958950;28;64969;-57
2023/03/01 08:06:24;;;;;;;;;51.25;42.50;;;;;2.95;49.01;102306.91;4959866;28;63447;-57
2023/03/01 08:08:50;;;;;;;;;49.00;41.00;;;;;3.04;48.93;102309.59;4954395;28;66362;-56
2023/03/01 08:11:15;;;;;;;;;40.00;37.25;;;;;3.13;48.59;102303.50;4957615;28;53645;-57
2023/03/01 08:13:41;;;;;;;;;48.75;38.50;;;;;3.22;48.17;102307.91;4959247;28;46359;-57
2023/03/01 08:16:14;;;;;;;;;48.25;40.50;;;;;3.33;47.80;102311.47;4952649;28;45548;-57
2023/03/01 08:18:39;;;;;;;;;51.25;43.00;;;;;3.46;48.06;102307.13;4953809;28;45358;-56
2023/03/01 08:21:06;;;;;;;;;49.50;41.50;;;;;3.62;47.78;102306.31;4959117;28;45900;-56
2023/03/01 08:23:31;;;;;;;;;46.00;39.00;;;;;3.74;47.67;102308.13;4950614;28;45480;-56
2023/03/01 08:26:09;;;;;;;;;48.25;39.75;;;;;3.93;47.27;102309.00;4956750;28;71170;-56
2023/03/01 08:28:35;;;;;;;;;55.25;41.00;;;;;4.06;47.29;102309.91;4956551;28;45558;-57
2023/03/01 08:31:00;;;;;;;;;51.00;41.00;;;;;4.17;46.66;102303.78;4958057;28;45424;-56
2023/03/01 08:33:26;;;;;;;;;44.50;36.50;;;;;4.21;46.81;102301.16;4958436;28;46537;-56
2023/03/01 08:35:52;;;;;;;;;45.25;39.50;;;;;4.27;46.69;102303.78;4958172;28;48070;-57
2023/03/01 08:38:17;;;;;;;;;47.50;40.50;;;;;4.39;46.58;102299.38;4959113;28;46129;-56
2023/03/01 08:40:42;;;;;;;;;43.50;40.00;;;;;4.51;46.36;102293.22;4959736;28;45390;-56
2023/03/01 08:43:08;;;;;;;;;45.50;35.50;;;;;4.55;45.76;102292.34;4956030;28;65515;-56
2023/03/01 08:45:33;;;;;;;;;35.75;29.00;;;;;4.53;45.58;102295.00;4958990;28;67384;-55
2023/03/01 08:47:58;;;;;;;;;44.00;39.00;;;;;4.52;45.93;102287.09;4958716;28;67890;-56
2023/03/01 08:50:24;;;;;;;;;52.25;40.50;;;;;4.55;45.60;102287.97;4958674;28;45523;-57
2023/03/01 08:52:50;;;;;;;;;48.50;41.25;;;;;4.60;45.53;102280.03;4954408;28;46802;-56
2023/03/01 08:55:16;;;;;;;;;57.75;44.00;;;;;4.65;45.32;102273.00;4959060;28;46267;-56
2023/03/01 08:57:42;;;;;;;;;48.75;40.25;;;;;4.71;45.23;102275.63;4959049;28;45453;-55
2023/03/01 09:00:08;;;;;;;;;50.25;40.00;;;;;4.77;45.48;102272.09;4952454;28;45481;-57
2023/03/01 09:02:33;;;;;;;;;36.25;32.00;;;;;4.85;45.41;102258.91;4957909;28;45658;-57
2023/03/01 09:04:59;;;;;;;;;40.50;39.25;;;;;4.93;45.25;102255.38;4960936;28;49531;-56
2023/03/01 09:07:28;;;;;;;;;56.25;41.75;;;;;4.98;44.87;102255.38;4959730;28;45457;-56
2023/03/01 09:09:53;;;;;;;;;51.50;43.25;;;;;5.10;45.05;102252.66;4958841;28;45234;-56
2023/03/01 09:12:19;;;;;;;;;46.50;37.75;;;;;5.22;44.68;102248.22;4959069;28;46249;-56
2023/03/01 09:14:44;;;;;;;;;42.00;34.50;;;;;5.27;44.38;102238.53;4951471;28;45533;-56
2023/03/01 09:17:10;;;;;;;;;48.00;36.75;;;;;5.28;44.65;102240.28;4947823;28;46389;-56
2023/03/01 09:19:35;;;;;;;;;41.00;29.25;;;;;5.31;44.24;102235.00;4957305;28;45397;-56
2023/03/01 09:22:03;;;;;;;;;51.25;37.25;;;;;5.36;43.98;102237.59;4956863;28;66212;-55
2023/03/01 09:24:28;;;;;;;;;52.50;41.25;;;;;5.40;43.67;102227.03;4959327;28;45465;-55
2023/03/01 09:26:55;;;;;;;;;45.00;35.50;;;;;5.47;43.92;102230.50;4955946;28;68521;-56
2023/03/01 09:29:21;;;;;;;;;50.50;39.00;;;;;5.56;44.08;102222.50;4960413;28;45478;-57
2023/03/01 09:31:46;;;;;;;;;46.75;38.75;;;;;5.66;43.41;102223.34;4957267;28;45732;-57
2023/03/01 09:34:11;;;;;;;;;47.00;38.00;;;;;5.75;43.44;102222.38;4956386;28;70333;-56
2023/03/01 09:36:37;;;;;;;;;46.75;39.00;;;;;5.95;43.34;102220.47;4953765;28;45468;-56
2023/03/01 09:39:05;;;;;;;;;43.50;35.25;;;;;6.95;43.39;102220.41;4970773;28;45579;-56
2023/03/01 09:41:42;;;;;;;;;50.00;39.75;;;;;8.76;41.24;102210.47;4957021;28;45418;-56
2023/03/01 09:44:11;;;;;;;;;44.25;38.00;;;;;10.42;40.03;102206.66;4956931;28;45632;-56
2023/03/01 09:46:42;;;;;;;;;38.25;34.50;;;;;11.82;37.86;102206.91;4954095;28;45377;-56
2023/03/01 09:49:16;;;;;;;;;41.25;34.75;;;;;12.70;33.81;102203.06;4952957;28;45827;-56
2023/03/01 09:51:42;;;;;;;;;45.75;37.50;;;;;13.33;33.48;102192.63;4956628;28;46446;-56
2023/03/01 09:54:10;;;;;;;;;48.50;36.00;;;;;14.04;33.70;102196.91;4963434;28;45642;-56
2023/03/01 09:56:38;;;;;;;;;49.50;36.75;;;;;14.87;31.93;102192.41;4956191;28;45735;-56
2023/03/01 09:59:20;;;;;;;;;40.75;36.25;;;;;15.31;30.38;102186.75;4958111;28;45499;-57
2023/03/01 10:01:45;;;;;;;;;46.00;35.50;;;;;15.63;31.24;102189.72;4957279;28;45480;-56
2023/03/01 10:04:54;;;;;;;;;38.50;35.00;;;;;16.09;29.95;102191.03;4958130;28;45429;-56
2023/03/01 10:07:28;;;;;;;;;41.00;36.25;;;;;16.31;28.71;102178.25;4954141;28;45297;-57
2023/03/01 10:09:53;;;;;;;;;49.50;39.50;;;;;16.73;28.98;102172.47;4955285;28;45269;-57
2023/03/01 10:12:23;;;;;;;;;44.75;36.50;;;;;17.10;28.14;102165.94;4938702;28;73396;-57
2023/03/01 10:15:05;;;;;;;;;46.00;36.00;;;;;17.48;28.10;102168.31;4953500;28;45433;-56
2023/03/01 10:17:49;;;;;;;;;43.75;35.75;;;;;17.94;27.67;102163.88;4938472;28;45445;-57
2023/03/01 10:20:17;;;;;;;;;47.00;37.75;;;;;18.14;27.62;102155.47;4955203;28;46082;-57
2023/03/01 10:22:46;;;;;;;;;35.75;32.75;;;;;18.17;25.91;102151.72;4956693;28;47685;-58
2023/03/01 10:25:14;;;;;;;;;47.00;38.00;;;;;17.88;25.31;102151.63;4956555;28;45465;-57
2023/03/01 10:27:52;;;;;;;;;49.50;38.25;;;;;17.86;26.52;102159.78;4957068;28;45511;-57
2023/03/01 10:30:19;;;;;;;;;43.75;35.25;;;;;17.91;26.23;102156.81;4957580;28;45436;-57
2023/03/01 10:32:45;;;;;;;;;46.25;34.00;;;;;17.64;25.55;102156.66;4957629;28;45384;-57
2023/03/01 10:35:28;;;;;;;;;42.00;34.00;;;;;17.12;24.62;102145.25;4957035;28;45596;-57
2023/03/01 10:38:13;;;;;;;;;44.50;37.50;;;;;17.19;26.32;102156.50;4956533;28;45873;-57
2023/03/01 10:40:57;;;;;;;;;41.25;36.00;;;;;17.28;26.13;102152.44;4956646;28;45572;-57
2023/03/01 10:43:23;;;;;;;;;42.00;35.75;;;;;17.83;27.04;102151.91;4954193;28;45582;-57
2023/03/01 10:45:49;;;;;;;;;46.75;37.25;;;;;18.42;25.92;102158.28;4956243;28;45421;-57
2023/03/01 10:48:25;;;;;;;;;44.75;37.00;;;;;19.05;25.69;102140.88;4955944;28;45536;-57
2023/03/01 10:50:57;;;;;;;;;46.75;37.25;;;;;19.82;25.74;102138.50;4955248;28;45563;-57
2023/03/01 10:53:28;;;;;;;;;46.25;37.00;;;;;20.56;25.39;102135.19;4951887;28;45457;-57
2023/03/01 10:55:59;;;;;;;;;37.25;34.00;;;;;21.05;22.81;102132.63;4949991;28;45438;-57
2023/03/01 10:58:25;;;;;;;;;48.00;40.00;;;;;21.15;21.85;102137.22;4944831;28;45600;-56
2023/03/01 11:01:17;;;;;;;;;45.50;34.75;;;;;21.56;22.28;102134.28;4942255;28;45478;-57
2023/03/01 11:03:42;;;;;;;;;43.50;37.25;;;;;21.75;22.42;102131.88;4957386;28;45418;-57
2023/03/01 11:06:10;;;;;;;;;43.00;36.25;;;;;21.42;22.71;102121.75;4953488;28;61879;-57
2023/03/01 11:08:44;;;;;;;;;43.25;34.50;;;;;21.54;22.93;102130.81;4954625;28;45465;-57
2023/03/01 11:11:09;;;;;;;;;37.50;32.75;;;;;21.32;21.44;102121.59;4953583;28;45524;-57
2023/03/01 11:13:35;;;;;;;;;44.75;35.25;;;;;21.41;22.30;102112.78;4958237;28;48124;-57
2023/03/01 11:16:02;;;;;;;;;39.00;32.00;;;;;21.53;20.45;102119.09;4957587;28;45602;-53
2023/03/01 11:18:29;;;;;;;;;37.67;32.33;;;;;21.66;22.15;102107.38;4955597;28;45510;-61
2023/03/01 11:20:55;;;;;;;;;42.67;34.67;;;;;22.13;21.99;102103.66;4961150;28;45391;-60
2023/03/01 11:23:22;;;;;;;;;44.33;36.00;;;;;22.40;21.05;102104.34;4960690;28;46977;-60
2023/03/01 11:26:02;;;;;;;;;42.25;35.25;;;;;22.74;21.22;102101.63;4942925;28;45516;-58
2023/03/01 11:28:29;;;;;;;;;37.33;34.00;;;;;22.98;19.99;102100.59;4960326;28;45332;-59
2023/03/01 11:31:00;;;;;;;;;46.67;38.00;;;;;22.57;20.04;102101.13;4959307;28;45505;-59
2023/03/01 11:33:53;;;;;;;;;44.00;34.67;;;;;22.41;20.91;102104.22;4959863;28;45523;-59
2023/03/01 11:36:55;;;;;;;;;37.75;34.75;;;;;22.55;20.46;102096.81;4954643;28;45607;-59
2023/03/01 11:39:28;;;;;;;;;36.00;30.00;;;;;22.18;20.13;102097.88;4920216;28;45438;-55
2023/03/01 11:42:05;;;;;;;;;41.67;32.67;;;;;21.69;20.72;102097.16;4960320;28;45698;-51
2023/03/01 11:44:33;;;;;;;;;42.75;35.75;;;;;21.63;19.61;102093.09;4952211;28;45560;-52
2023/03/01 11:47:20;;;;;;;;;43.00;37.00;;;;;21.87;20.29;102092.16;4957959;28;45413;-52
2023/03/01 11:50:15;;;;;;;;;43.33;36.00;;;;;21.84;20.66;102089.72;4959131;28;45807;-57
2023/03/01 11:52:49;;;;;;;;;40.67;35.00;;;;;21.78;20.40;102084.75;4957674;28;45319;-59
2023/03/01 11:55:46;;;;;;;;;40.33;34.67;;;;;21.49;20.70;102085.13;4961064;28;46187;-58
2023/03/01 11:58:14;;;;;;;;;39.33;34.33;;;;;21.43;20.29;102083.75;4959609;28;45321;-57
2023/03/01 12:00:42;;;;;;;;;41.67;35.00;;;;;21.40;20.74;102080.44;4959981;28;45285;-58
2023/03/01 12:03:49;;;;;;;;;39.67;34.00;;;;;21.72;20.42;102064.44;4959483;28;46046;-57
2023/03/01 12:06:33;;;;;;;;;41.67;35.00;;;;;22.14;20.42;102063.91;4958538;28;46026;-55
2023/03/01 12:09:03;;;;;;;;;42.67;37.33;;;;;22.39;19.40;102062.81;4943002;28;45477;-58
2023/03/01 12:11:38;;;;;;;;;37.33;33.67;;;;;22.81;19.11;102054.00;4960913;28;45331;-58
2023/03/01 12:14:34;;;;;;;;;41.00;35.67;;;;;23.18;19.48;102050.97;4957994;28;45497;-59
2023/03/01 12:17:18;;;;;;;;;35.00;32.00;;;;;23.68;20.71;102041.34;4957396;28;47013;-53
2023/03/01 12:20:09;;;;;;;;;38.67;34.67;;;;;23.94;18.74;102036.41;4959745;28;45502;-54
2023/03/01 12:22:35;;;;;;;;;42.67;34.00;;;;;23.72;18.65;102037.38;4952962;28;45405;-57
2023/03/01 12:25:15;;;;;;;;;43.67;35.67;;;;;22.84;19.57;102025.78;4958600;28;45495;-55
2023/03/01 12:28:19;;;;;;;;;48.67;38.00;;;;;22.10;22.79;102038.88;4960649;28;45451;-54
2023/03/01 12:31:03;;;;;;;;;46.33;35.00;;;;;22.05;21.32;102032.97;4952244;28;45293;-53
2023/03/01 12:33:43;;;;;;;;;41.00;37.00;;;;;22.04;21.27;102028.53;4960435;28;45323;-65
2023/03/01 12:36:19;;;;;;;;;37.67;32.67;;;;;21.92;20.38;102029.53;4958890;28;45421;-59
2023/03/01 12:38:46;;;;;;;;;41.67;32.67;;;;;21.68;19.10;102035.00;4951998;28;48627;-59
2023/03/01 12:41:29;;;;;;;;;43.00;36.67;;;;;21.13;20.03;102016.59;4960231;28;45361;-61
2023/03/01 12:44:00;;;;;;;;;41.00;35.67;;;;;20.61;20.24;102011.41;4959756;28;45460;-61
2023/03/01 12:46:44;;;;;;;;;44.75;38.00;;;;;20.13;20.01;102014.84;4955957;28;45592;-60
2023/03/01 12:49:28;;;;;;;;;40.67;34.67;;;;;19.39;20.86;102011.88;4959392;28;49205;-61
2023/03/01 12:52:01;;;;;;;;;41.67;36.00;;;;;18.68;21.38;101998.56;4956267;28;45401;-61
2023/03/01 12:54:35;;;;;;;;;43.33;35.67;;;;;18.06;22.28;101996.25;4954929;28;45523;-61
2023/03/01 12:57:29;;;;;;;;;42.00;37.00;;;;;17.33;22.69;101999.78;4952743;28;45588;-61
2023/03/01 13:00:40;;;;;;;;;40.33;35.00;;;;;16.62;23.33;101988.59;4950510;28;46273;-62
2023/03/01 13:03:36;;;;;;;;;48.33;37.00;;;;;16.02;23.79;101982.03;4958474;28;45310;-61
2023/03/01 13:06:15;;;;;;;;;39.00;34.00;;;;;15.62;24.78;101978.78;4956727;28;45760;-60
2023/03/01 13:08:52;;;;;;;;;44.25;34.75;;;;;15.20;24.96;101969.31;4939679;28;45549;-60
2023/03/01 13:11:20;;;;;;;;;45.00;37.00;;;;;14.95;25.52;101965.19;4937462;28;47425;-60
2023/03/01 13:13:48;;;;;;;;;47.50;36.00;;;;;14.77;25.57;101963.44;4959144;28;45397;-60
2023/03/01 13:16:28;;;;;;;;;49.00;40.00;;;;;14.43;25.95;101963.25;4958618;28;45445;-60
2023/03/01 13:19:32;;;;;;;;;47.50;38.50;;;;;14.11;26.44;101962.97;4971629;28;45661;-60
2023/03/01 13:21:57;;;;;;;;;44.75;33.50;;;;;13.83;26.98;101952.66;4959331;28;45649;-60
2023/03/01 13:24:25;;;;;;;;;44.75;36.75;;;;;13.71;27.52;101952.28;4980942;28;45397;-59
2023/03/01 13:27:05;;;;;;;;;45.25;38.25;;;;;13.45;27.60;101947.22;4959169;28;45778;-60
2023/03/01 13:29:44;;;;;;;;;47.50;38.25;;;;;13.23;27.82;101949.00;4958318;28;45497;-60
2023/03/01 13:32:28;;;;;;;;;45.75;36.75;;;;;13.09;28.41;101935.38;4958854;28;45347;-60
2023/03/01 13:34:59;;;;;;;;;46.25;37.50;;;;;12.84;28.48;101936.41;4954149;28;45310;-60
2023/03/01 13:37:29;;;;;;;;;43.00;35.50;;;;;12.70;28.70;101928.94;4956218;28;45376;-60
2023/03/01 13:39:57;;;;;;;;;38.25;33.75;;;;;12.66;28.73;101927.34;4956602;28;45637;-59
2023/03/01 13:42:38;;;;;;;;;45.50;36.25;;;;;12.72;29.04;101927.09;4956437;28;46305;-60
2023/03/01 13:45:16;;;;;;;;;40.25;35.75;;;;;12.69;29.17;101924.53;4953631;28;45416;-60
2023/03/01 13:47:43;;;;;;;;;66.75;44.75;;;;;12.63;29.59;101923.94;4941288;28;45589;-58
2023/03/01 13:50:16;;;;;;;;;47.25;38.50;;;;;12.50;29.45;101916.44;4956392;28;45816;-60
2023/03/01 13:52:44;;;;;;;;;39.25;33.25;;;;;12.37;29.77;101910.72;4957471;28;48045;-60
2023/03/01 13:55:43;;;;;;;;;36.75;34.00;;;;;12.14;30.12;101908.94;4956966;28;45526;-59
2023/03/01 13:58:21;;;;;;;;;45.50;37.00;;;;;11.90;30.38;101903.59;4954879;28;45496;-60
2023/03/01 14:00:46;;;;;;;;;157.33;132.00;;;;;11.68;30.75;101903.53;4955595;28;45238;-59
2023/03/01 14:03:16;;;;;;;;;54.00;43.50;;;;;11.51;30.83;101898.84;4953892;28;49534;-60
2023/03/01 14:05:44;;;;;;;;;43.00;36.50;;;;;11.39;31.07;101889.50;4957248;28;45479;-59
2023/03/01 14:08:22;;;;;;;;;40.50;35.50;;;;;11.23;31.46;101893.63;4953579;28;45365;-59
2023/03/01 14:10:54;;;;;;;;;43.50;37.25;;;;;11.17;31.61;101892.06;4952671;28;45344;-59
2023/03/01 14:13:41;;;;;;;;;44.75;36.00;;;;;11.10;31.89;101885.19;4957183;28;45396;-60
2023/03/01 14:16:30;;;;;;;;;44.50;36.75;;;;;11.06;31.95;101888.91;4941858;28;45504;-60
2023/03/01 14:19:16;;;;;;;;;41.50;34.00;;;;;11.01;32.20;101883.72;4953142;28;45449;-59
2023/03/01 14:21:42;;;;;;;;;32.00;26.75;;;;;10.98;32.03;101881.16;4965145;28;45572;-59
2023/03/01 14:24:17;;;;;;;;;41.25;34.75;;;;;10.90;31.94;101872.59;4957003;28;46955;-60
2023/03/01 14:26:42;;;;;;;;;42.75;35.50;;;;;10.87;32.37;101860.25;4952512;28;45392;-59
2023/03/01 14:29:23;;;;;;;;;48.75;38.50;;;;;10.85;32.61;101861.22;4948062;28;62829;-60
2023/03/01 14:31:49;;;;;;;;;42.50;33.50;;;;;10.75;32.50;101858.88;4956406;28;45569;-60
2023/03/01 14:34:23;;;;;;;;;46.25;36.25;;;;;10.60;33.35;101872.69;4947148;28;45898;-59
2023/03/01 14:36:49;;;;;;;;;43.00;37.50;;;;;10.55;33.27;101864.00;4958068;28;45450;-59
2023/03/01 14:39:19;;;;;;;;;49.00;37.75;;;;;10.43;33.58;101860.81;4954646;28;69113;-59
2023/03/01 14:41:45;;;;;;;;;41.75;35.75;;;;;10.40;33.26;101860.03;4960993;28;45635;-59
2023/03/01 14:44:20;;;;;;;;;49.50;34.75;;;;;10.37;33.92;101861.00;4955754;28;46864;-58
2023/03/01 14:46:46;;;;;;;;;48.25;38.00;;;;;10.33;33.72;101854.00;4960499;28;45359;-60
2023/03/01 14:49:41;;;;;;;;;39.00;35.00;;;;;10.26;33.79;101861.31;4959437;28;45675;-60
2023/03/01 14:52:18;;;;;;;;;45.25;36.25;;;;;10.21;34.19;101865.91;4939751;28;45782;-60
2023/03/01 14:54:46;;;;;;;;;45.75;35.50;;;;;10.20;34.37;101860.66;4961305;28;45813;-59
2023/03/01 14:57:30;;;;;;;;;48.00;38.50;;;;;10.17;34.04;101860.72;4959560;28;46338;-60
2023/03/01 15:00:00;;;;;;;;;42.25;34.75;;;;;10.14;34.23;101866.16;4952038;28;61036;-58
2023/03/01 15:02:26;;;;;;;;;47.50;39.25;;;;;10.06;34.51;101861.97;4959446;28;45544;-59
2023/03/01 15:04:56;;;;;;;;;42.50;38.00;;;;;9.97;34.51;101853.38;4959167;28;45353;-59
2023/03/01 15:07:23;;;;;;;;;50.25;36.00;;;;;9.90;34.95;101858.88;4952791;28;45562;-60
2023/03/01 15:09:48;;;;;;;;;44.25;32.25;;;;;9.90;34.39;101856.22;4961125;28;45353;-59
2023/03/01 15:12:29;;;;;;;;;43.25;35.25;;;;;9.90;34.41;101856.22;4958229;28;45460;-59
2023/03/01 15:14:55;;;;;;;;;44.00;36.75;;;;;9.88;35.06;101857.19;4959981;28;47391;-59
2023/03/01 15:17:23;;;;;;;;;43.25;34.00;;;;;9.84;34.63;101851.13;4953638;28;45344;-59
2023/03/01 15:19:49;;;;;;;;;26.50;21.75;;;;;9.81;35.09;101845.03;4959757;28;45544;-59
2023/03/01 15:22:17;;;;;;;;;41.25;34.00;;;;;9.75;34.94;101852.25;4956971;28;68068;-59
2023/03/01 15:24:47;;;;;;;;;41.75;33.50;;;;;9.75;34.79;101851.38;4954558;28;65802;-59
2023/03/01 15:27:19;;;;;;;;;41.50;35.50;;;;;9.71;34.83;101845.28;4955883;28;45466;-59
2023/03/01 15:29:57;;;;;;;;;43.75;36.00;;;;;9.65;35.21;101844.56;4959101;28;45416;-59
2023/03/01 15:32:28;;;;;;;;;40.75;33.25;;;;;9.67;34.73;101834.78;4959200;28;45472;-58
2023/03/01 15:34:55;;;;;;;;;42.25;33.75;;;;;9.66;34.96;101843.66;4957745;28;45648;-58
2023/03/01 15:37:49;;;;;;;;;39.00;33.75;;;;;9.64;35.14;101842.88;4939558;28;45415;-58
2023/03/01 15:40:19;;;;;;;;;45.00;36.75;;;;;9.60;35.34;101842.06;4956120;28;45923;-59
2023/03/01 15:42:45;;;;;;;;;45.00;36.50;;;;;9.59;35.65;101841.22;4959053;28;45369;-59
2023/03/01 15:45:15;;;;;;;;;38.25;33.50;;;;;9.56;35.61;101830.66;4958753;28;46597;-59
2023/03/01 15:47:41;;;;;;;;;38.25;32.75;;;;;9.56;35.65;101845.75;4955571;28;45630;-58
2023/03/01 15:50:23;;;;;;;;;43.75;34.75;;;;;9.49;35.45;101839.75;4958291;28;45420;-58
2023/03/01 15:52:49;;;;;;;;;35.25;34.00;;;;;9.40;35.61;101826.72;4955205;28;45635;-58
2023/03/01 15:55:35;;;;;;;;;39.50;30.75;;;;;9.36;35.82;101819.75;4968751;28;45465;-58
2023/03/01 15:58:03;;;;;;;;;43.00;36.25;;;;;9.30;35.76;101823.47;4955855;28;45684;-59
2023/03/01 16:00:29;;;;;;;;;44.75;35.75;;;;;9.26;36.18;101822.66;4959873;28;45294;-58
2023/03/01 16:02:55;;;;;;;;;44.25;36.25;;;;;9.23;36.03;101824.53;4943079;28;45513;-58
2023/03/01 16:05:23;;;;;;;;;39.75;33.75;;;;;9.23;35.93;101820.09;4960944;28;46273;-59
2023/03/01 16:07:49;;;;;;;;;40.75;35.50;;;;;9.26;36.37;101819.16;4959608;28;45579;-60
2023/03/01 16:10:15;;;;;;;;;37.75;33.50;;;;;9.25;35.89;101818.25;4959246;28;45322;-60
2023/03/01 16:12:40;;;;;;;;;37.75;34.00;;;;;9.21;35.92;101815.75;4959440;28;45421;-60
2023/03/01 16:15:15;;;;;;;;;38.00;32.75;;;;;9.15;36.30;101808.84;4943106;28;47652;-59
2023/03/01 16:17:40;;;;;;;;;37.25;33.50;;;;;9.10;36.13;101806.31;4959147;28;45561;-59
2023/03/01 16:20:06;;;;;;;;;41.50;33.50;;;;;9.03;36.43;101804.72;4960954;28;45446;-59
2023/03/01 16:22:31;;;;;;;;;37.25;31.25;;;;;9.00;36.35;101809.25;4960280;28;45296;-59
2023/03/01 16:24:57;;;;;;;;;37.75;32.75;;;;;8.96;36.14;101812.88;4958123;28;63458;-59
2023/03/01 16:27:22;;;;;;;;;36.00;31.25;;;;;8.90;35.72;101806.88;4961090;28;45363;-59
2023/03/01 16:29:47;;;;;;;;;34.25;30.00;;;;;8.85;36.34;101805.22;4958244;28;45305;-59
2023/03/01 16:32:13;;;;;;;;;35.25;29.75;;;;;8.81;36.40;101808.88;4958648;28;46461;-59
2023/03/01 16:34:38;;;;;;;;;28.50;27.00;;;;;8.78;36.33;101818.66;4962842;28;71192;-59
2023/03/01 16:37:04;;;;;;;;;32.00;28.00;;;;;8.73;36.23;101819.69;4958676;28;66154;-59
2023/03/01 16:39:29;;;;;;;;;29.00;27.50;;;;;8.67;36.32;101823.38;4954604;28;59956;-60
2023/03/01 16:41:54;;;;;;;;;31.25;29.25;;;;;8.62;36.61;101819.97;4958438;28;45940;-60
2023/03/01 16:44:20;;;;;;;;;40.00;29.00;;;;;8.56;36.79;101828.06;4958444;28;65893;-59
2023/03/01 16:46:46;;;;;;;;;37.25;32.50;;;;;8.53;36.67;101826.38;4960707;28;45249;-59
2023/03/01 16:49:11;;;;;;;;;34.00;30.75;;;;;8.49;36.69;101827.38;4958813;28;55982;-59
2023/03/01 16:51:36;;;;;;;;;35.25;32.25;;;;;8.43;36.83;101831.03;4956835;28;66598;-59
2023/03/01 16:54:04;;;;;;;;;34.25;28.75;;;;;8.40;36.95;101838.16;4957234;28;46403;-59
2023/03/01 16:56:31;;;;;;;;;30.50;24.50;;;;;8.38;37.03;101835.56;4955107;28;45502;-58
2023/03/01 16:58:56;;;;;;;;;34.75;28.75;;;;;8.33;36.13;101828.59;4961182;28;45445;-58
2023/03/01 17:01:25;;;;;;;;;40.25;32.25;;;;;8.28;36.77;101831.38;4944883;28;62493;-59
2023/03/01 17:03:51;;;;;;;;;33.00;28.50;;;;;8.25;37.08;101834.09;4959188;28;47673;-59
2023/03/01 17:06:20;;;;;;;;;36.75;31.75;;;;;8.18;37.14;101829.84;4960620;28;45466;-59
2023/03/01 17:08:45;;;;;;;;;38.50;32.25;;;;;8.11;37.15;101834.44;4971203;28;45448;-58
2023/03/01 17:11:14;;;;;;;;;26.75;25.75;;;;;8.05;37.52;101824.84;4955252;28;45481;-59
2023/03/01 17:13:39;;;;;;;;;39.75;29.25;;;;;7.93;37.75;101827.78;4944213;28;47239;-58
2023/03/01 17:16:08;;;;;;;;;33.25;29.25;;;;;7.93;37.53;101833.94;4953012;28;45355;-58
2023/03/01 17:18:33;;;;;;;;;34.50;31.75;;;;;7.89;37.84;101832.25;4954793;28;45462;-58
2023/03/01 17:21:00;;;;;;;;;33.50;31.25;;;;;7.83;37.49;101835.03;4958331;28;45407;-58
2023/03/01 17:23:27;;;;;;;;;39.50;29.75;;;;;7.82;37.82;101822.69;4939151;28;48201;-58
2023/03/01 17:25:54;;;;;;;;;39.50;33.00;;;;;7.76;37.67;101825.50;4958335;28;45438;-59
2023/03/01 17:28:21;;;;;;;;;45.25;34.00;;;;;7.71;37.87;101828.25;4942524;28;45436;-59
2023/03/01 17:30:46;;;;;;;;;42.75;34.50;;;;;7.67;37.71;101831.88;4956569;28;45504;-58
2023/03/01 17:33:12;;;;;;;;;39.50;33.75;;;;;7.61;37.85;101832.88;4960430;28;45534;-58